createdAt,value
2017-03-28T00:00:32.190Z,52.00
2017-03-28T00:01:30.048Z,51.90
2017-03-28T00:02:28.296Z,52.00
2017-03-28T00:03:26.031Z,51.80
2017-03-28T00:04:23.767Z,51.90
2017-03-28T00:05:21.634Z,52.20
2017-03-28T00:06:19.351Z,51.70
2017-03-28T00:07:16.962Z,51.90
2017-03-28T00:08:15.006Z,52.60
2017-03-28T00:09:12.787Z,52.10
2017-03-28T00:10:10.471Z,52.30
2017-03-28T00:11:08.442Z,52.00
2017-03-28T00:12:06.290Z,52.10
2017-03-28T00:13:03.983Z,52.40
2017-03-28T00:14:01.746Z,52.70
2017-03-28T00:15:00.091Z,52.80
2017-03-28T00:15:57.830Z,53.10
2017-03-28T00:16:55.598Z,52.90
2017-03-28T00:17:54.412Z,53.00
2017-03-28T00:18:52.123Z,52.90
2017-03-28T00:19:49.900Z,53.20
2017-03-28T00:20:48.549Z,52.90
2017-03-28T00:21:46.258Z,53.10
2017-03-28T00:22:44.123Z,53.00
2017-03-28T00:23:41.777Z,52.90
2017-03-28T00:24:39.395Z,53.20
2017-03-28T00:25:37.581Z,53.10
2017-03-28T00:26:35.375Z,53.30
2017-03-28T00:27:33.181Z,53.30
2017-03-28T00:28:31.479Z,53.30
2017-03-28T00:29:29.126Z,52.80
2017-03-28T00:30:28.507Z,52.60
2017-03-28T00:31:26.423Z,52.30
2017-03-28T00:32:24.099Z,52.60
2017-03-28T00:33:21.695Z,52.40
2017-03-28T00:34:19.352Z,52.50
2017-03-28T00:35:17.050Z,52.30
2017-03-28T00:36:14.706Z,52.20
2017-03-28T00:37:13.399Z,52.40
2017-03-28T00:38:11.040Z,52.20
2017-03-28T00:39:08.688Z,52.30
2017-03-28T00:40:06.895Z,53.00
2017-03-28T00:41:04.567Z,52.80
2017-03-28T00:42:02.275Z,52.80
2017-03-28T00:43:00.302Z,53.00
2017-03-28T00:43:57.945Z,52.60
2017-03-28T00:44:56.087Z,53.00
2017-03-28T00:45:54.169Z,52.80
2017-03-28T00:46:51.780Z,52.50
2017-03-28T00:47:49.416Z,52.50
2017-03-28T00:48:47.033Z,52.60
2017-03-28T00:49:44.695Z,53.00
2017-03-28T00:50:42.737Z,53.00
2017-03-28T00:51:40.403Z,53.20
2017-03-28T00:52:38.267Z,52.90
2017-03-28T00:53:36.029Z,52.90
2017-03-28T00:54:33.733Z,53.30
2017-03-28T00:55:31.446Z,53.20
2017-03-28T00:56:29.870Z,53.00
2017-03-28T00:57:27.479Z,53.30
2017-03-28T00:58:25.283Z,53.30
2017-03-28T00:59:23.123Z,53.30
2017-03-28T01:00:21.538Z,53.00
2017-03-28T01:01:19.219Z,53.00
2017-03-28T01:02:17.070Z,53.10
2017-03-28T01:03:14.721Z,53.10
2017-03-28T01:04:12.384Z,53.10
2017-03-28T01:05:10.079Z,53.00
2017-03-28T01:06:07.745Z,53.70
2017-03-28T01:07:05.415Z,53.30
2017-03-28T01:08:03.212Z,53.60
2017-03-28T01:09:01.108Z,53.60
2017-03-28T01:09:58.790Z,53.80
2017-03-28T01:10:56.466Z,53.70
2017-03-28T01:11:54.362Z,53.50
2017-03-28T01:12:52.035Z,53.00
2017-03-28T01:13:50.179Z,53.70
2017-03-28T01:14:47.810Z,54.30
2017-03-28T01:15:45.527Z,54.20
2017-03-28T01:16:43.170Z,53.60
2017-03-28T01:17:41.922Z,53.50
2017-03-28T01:18:40.235Z,53.60
2017-03-28T01:19:38.280Z,54.00
2017-03-28T01:20:35.976Z,53.50
2017-03-28T01:21:33.670Z,53.70
2017-03-28T01:22:31.471Z,53.50
2017-03-28T01:23:29.755Z,53.30
2017-03-28T01:24:28.355Z,53.50
2017-03-28T01:25:26.499Z,53.60
2017-03-28T01:26:24.172Z,53.40
2017-03-28T01:27:21.806Z,53.40
2017-03-28T01:28:20.191Z,53.50
2017-03-28T01:29:17.827Z,53.70
2017-03-28T01:30:15.499Z,53.80
2017-03-28T01:31:13.221Z,53.70
2017-03-28T01:32:11.666Z,53.60
2017-03-28T01:33:09.347Z,53.40
2017-03-28T01:34:06.971Z,53.50
2017-03-28T01:35:04.709Z,53.30
2017-03-28T01:36:02.410Z,53.40
2017-03-28T01:37:00.259Z,53.20
2017-03-28T01:37:58.055Z,53.40
2017-03-28T01:38:56.415Z,53.80
2017-03-28T01:39:54.462Z,53.60
2017-03-28T01:40:52.146Z,53.50
2017-03-28T01:41:50.174Z,53.50
2017-03-28T01:42:48.359Z,53.70
2017-03-28T01:43:48.655Z,53.80
2017-03-28T01:44:46.504Z,54.30
2017-03-28T01:45:44.303Z,54.30
2017-03-28T01:46:41.959Z,54.10
2017-03-28T01:47:40.244Z,54.00
2017-03-28T01:48:37.934Z,53.80
2017-03-28T01:49:35.584Z,53.70
2017-03-28T01:50:34.043Z,53.50
2017-03-28T01:51:31.872Z,54.00
2017-03-28T01:52:29.579Z,53.90
2017-03-28T01:53:27.904Z,54.20
2017-03-28T01:54:25.840Z,54.30
2017-03-28T01:55:23.647Z,54.40
2017-03-28T01:56:21.527Z,54.30
2017-03-28T01:57:19.178Z,53.80
2017-03-28T01:58:17.846Z,53.90
2017-03-28T01:59:15.744Z,53.80
2017-03-28T02:00:13.922Z,54.00
2017-03-28T02:01:11.926Z,54.50
2017-03-28T02:02:09.796Z,53.70
2017-03-28T02:03:07.628Z,53.60
2017-03-28T02:04:05.266Z,53.80
2017-03-28T02:05:03.011Z,53.80
2017-03-28T02:06:01.955Z,53.70
2017-03-28T02:06:59.630Z,53.90
2017-03-28T02:07:58.105Z,54.20
2017-03-28T02:08:55.955Z,54.80
2017-03-28T02:09:53.668Z,54.20
2017-03-28T02:10:52.248Z,54.20
2017-03-28T02:11:49.978Z,54.80
2017-03-28T02:12:47.847Z,54.40
2017-03-28T02:13:45.538Z,54.40
2017-03-28T02:14:43.215Z,54.70
2017-03-28T02:15:40.916Z,54.90
2017-03-28T02:16:38.744Z,55.40
2017-03-28T02:17:36.972Z,55.30
2017-03-28T02:18:34.775Z,55.10
2017-03-28T02:19:32.439Z,55.20
2017-03-28T02:20:30.174Z,55.60
2017-03-28T02:21:28.031Z,55.70
2017-03-28T02:22:26.399Z,55.60
2017-03-28T02:23:24.359Z,55.80
2017-03-28T02:24:22.275Z,55.30
2017-03-28T02:25:20.774Z,55.70
2017-03-28T02:26:18.603Z,55.90
2017-03-28T02:27:17.375Z,55.30
2017-03-28T02:28:15.087Z,54.80
2017-03-28T02:29:12.799Z,55.00
2017-03-28T02:30:10.534Z,54.90
2017-03-28T02:31:08.443Z,55.30
2017-03-28T02:32:06.114Z,55.00
2017-03-28T02:33:03.919Z,54.40
2017-03-28T02:34:02.731Z,54.80
2017-03-28T02:35:00.620Z,53.90
2017-03-28T02:35:58.375Z,53.90
2017-03-28T02:36:56.086Z,53.70
2017-03-28T02:37:53.732Z,54.10
2017-03-28T02:38:51.602Z,54.50
2017-03-28T02:39:49.238Z,54.30
2017-03-28T02:40:47.366Z,54.80
2017-03-28T02:41:45.111Z,54.90
2017-03-28T02:42:42.927Z,54.90
2017-03-28T02:43:41.847Z,54.80
2017-03-28T02:44:39.542Z,55.30
2017-03-28T02:45:37.283Z,54.90
2017-03-28T02:46:35.399Z,54.90
2017-03-28T02:47:33.032Z,55.10
2017-03-28T02:48:30.796Z,55.80
2017-03-28T02:49:28.626Z,55.00
2017-03-28T02:50:26.676Z,55.20
2017-03-28T02:51:24.363Z,55.50
2017-03-28T02:52:22.490Z,55.40
2017-03-28T02:53:20.188Z,55.10
2017-03-28T02:54:17.929Z,55.00
2017-03-28T02:55:15.678Z,55.00
2017-03-28T02:56:14.020Z,54.60
2017-03-28T02:57:11.776Z,54.40
2017-03-28T02:58:10.432Z,54.40
2017-03-28T02:59:08.191Z,53.90
2017-03-28T03:00:06.370Z,54.50
2017-03-28T03:01:04.343Z,54.60
2017-03-28T03:02:03.380Z,54.60
2017-03-28T03:03:01.187Z,54.60
2017-03-28T03:03:59.035Z,55.00
2017-03-28T03:04:56.858Z,54.80
2017-03-28T03:05:54.903Z,55.00
2017-03-28T03:06:53.281Z,55.00
2017-03-28T03:07:50.879Z,54.90
2017-03-28T03:08:49.554Z,55.20
2017-03-28T03:09:57.412Z,55.60
2017-03-28T03:10:55.602Z,55.50
2017-03-28T03:11:53.278Z,55.40
2017-03-28T03:12:51.010Z,55.80
2017-03-28T03:13:48.792Z,56.10
2017-03-28T03:14:46.450Z,55.80
2017-03-28T03:15:44.336Z,56.00
2017-03-28T03:16:43.294Z,56.40
2017-03-28T03:17:40.914Z,56.20
2017-03-28T03:18:38.558Z,55.90
2017-03-28T03:19:36.333Z,56.60
2017-03-28T03:20:34.106Z,57.10
2017-03-28T03:21:31.786Z,57.10
2017-03-28T03:22:29.478Z,57.00
2017-03-28T03:23:27.371Z,57.50
2017-03-28T03:24:25.040Z,59.40
2017-03-28T03:25:22.891Z,58.80
2017-03-28T03:26:20.584Z,59.50
2017-03-28T03:27:18.846Z,59.60
2017-03-28T03:28:17.275Z,59.50
2017-03-28T03:29:14.976Z,59.50
2017-03-28T03:30:13.125Z,60.40
2017-03-28T03:31:11.018Z,60.50
2017-03-28T03:32:09.822Z,60.70
2017-03-28T03:33:07.503Z,60.80
2017-03-28T03:34:05.208Z,60.70
2017-03-28T03:35:03.090Z,60.60
2017-03-28T03:36:01.015Z,61.10
2017-03-28T03:36:58.736Z,60.70
2017-03-28T03:37:56.691Z,59.80
2017-03-28T03:38:54.331Z,59.80
2017-03-28T03:39:51.998Z,59.80
2017-03-28T03:40:49.814Z,59.40
2017-03-28T03:41:47.478Z,59.20
2017-03-28T03:42:45.374Z,59.70
2017-03-28T03:43:43.011Z,59.50
2017-03-28T03:44:40.879Z,59.10
2017-03-28T03:45:39.206Z,59.20
2017-03-28T03:46:36.813Z,58.50
2017-03-28T03:47:34.494Z,58.60
2017-03-28T03:48:33.083Z,58.70
2017-03-28T03:49:30.768Z,58.40
2017-03-28T03:50:28.794Z,58.70
2017-03-28T03:51:26.511Z,59.00
2017-03-28T03:52:24.230Z,59.50
2017-03-28T03:53:22.096Z,59.90
2017-03-28T03:54:20.420Z,60.50
2017-03-28T03:55:18.211Z,61.30
2017-03-28T03:56:16.932Z,61.30
2017-03-28T03:57:14.994Z,61.50
2017-03-28T03:58:12.867Z,61.30
2017-03-28T03:59:10.555Z,61.20
2017-03-28T04:00:08.273Z,61.10
2017-03-28T04:01:06.164Z,61.20
2017-03-28T04:02:03.856Z,61.30
2017-03-28T04:03:01.843Z,61.50
2017-03-28T04:03:59.463Z,61.60
2017-03-28T04:04:57.089Z,61.80
2017-03-28T04:05:55.546Z,62.20
2017-03-28T04:06:53.855Z,61.90
2017-03-28T04:07:51.435Z,62.10
2017-03-28T04:08:49.263Z,62.60
2017-03-28T04:09:47.330Z,63.10
2017-03-28T04:10:45.186Z,63.60
2017-03-28T04:11:43.531Z,63.60
2017-03-28T04:12:41.362Z,63.70
2017-03-28T04:13:38.983Z,63.80
2017-03-28T04:14:36.691Z,63.50
2017-03-28T04:15:34.362Z,63.60
2017-03-28T04:16:31.997Z,63.60
2017-03-28T04:17:29.790Z,63.60
2017-03-28T04:18:27.483Z,63.60
2017-03-28T04:19:25.159Z,63.30
2017-03-28T04:20:24.100Z,63.20
2017-03-28T04:21:21.820Z,62.70
2017-03-28T04:22:20.202Z,63.20
2017-03-28T04:23:17.839Z,62.90
2017-03-28T04:24:15.631Z,62.80
2017-03-28T04:25:13.479Z,62.90
2017-03-28T04:26:11.266Z,63.20
2017-03-28T04:27:10.047Z,63.90
2017-03-28T04:28:07.891Z,63.40
2017-03-28T04:29:05.696Z,63.30
2017-03-28T04:30:03.382Z,63.50
2017-03-28T04:31:01.877Z,63.30
2017-03-28T04:31:59.987Z,63.00
2017-03-28T04:32:57.879Z,62.70
2017-03-28T04:33:55.630Z,62.90
2017-03-28T04:34:53.254Z,62.90
2017-03-28T04:35:50.993Z,63.00
2017-03-28T04:36:48.634Z,62.60
2017-03-28T04:37:46.791Z,63.10
2017-03-28T04:38:44.387Z,63.50
2017-03-28T04:39:42.023Z,63.20
2017-03-28T04:40:39.719Z,63.00
2017-03-28T04:41:37.446Z,63.00
2017-03-28T04:42:35.255Z,62.90
2017-03-28T04:43:33.010Z,62.50
2017-03-28T04:44:30.763Z,62.70
2017-03-28T04:45:28.505Z,62.70
2017-03-28T04:46:26.239Z,62.60
2017-03-28T04:47:24.018Z,62.30
2017-03-28T04:48:21.722Z,62.30
2017-03-28T04:49:19.767Z,62.60
2017-03-28T04:50:17.578Z,62.30
2017-03-28T04:51:15.242Z,62.00
2017-03-28T04:52:12.951Z,62.30
2017-03-28T04:53:10.591Z,62.30
2017-03-28T04:54:08.264Z,62.10
2017-03-28T04:55:06.379Z,61.70
2017-03-28T04:56:04.050Z,61.70
2017-03-28T04:57:01.835Z,61.90
2017-03-28T04:57:59.752Z,61.50
2017-03-28T04:58:57.715Z,61.40
2017-03-28T04:59:57.179Z,61.20
2017-03-28T05:00:55.098Z,62.30
2017-03-28T05:01:52.954Z,62.00
2017-03-28T05:02:51.758Z,62.00
2017-03-28T05:03:49.490Z,63.10
2017-03-28T05:04:47.219Z,62.60
2017-03-28T05:05:45.079Z,62.80
2017-03-28T05:06:42.831Z,62.50
2017-03-28T05:07:40.507Z,62.80
2017-03-28T05:08:38.376Z,62.90
2017-03-28T05:09:36.037Z,62.60
2017-03-28T05:10:34.855Z,62.70
2017-03-28T05:11:32.579Z,63.30
2017-03-28T05:12:30.781Z,63.90
2017-03-28T05:13:28.400Z,63.70
2017-03-28T05:14:26.059Z,63.70
2017-03-28T05:15:23.843Z,63.60
2017-03-28T05:16:21.452Z,63.30
2017-03-28T05:17:19.787Z,63.70
2017-03-28T05:18:17.703Z,64.40
2017-03-28T05:19:15.439Z,64.00
2017-03-28T05:20:13.275Z,64.10
2017-03-28T05:21:11.536Z,64.20
2017-03-28T05:22:09.178Z,64.10
2017-03-28T05:23:06.815Z,63.80
2017-03-28T05:24:04.688Z,63.70
2017-03-28T05:25:02.398Z,63.90
2017-03-28T05:26:00.140Z,64.40
2017-03-28T05:26:57.864Z,63.50
2017-03-28T05:27:55.636Z,63.60
2017-03-28T05:28:53.269Z,63.90
2017-03-28T05:29:50.919Z,64.30
2017-03-28T05:30:48.763Z,63.80
2017-03-28T05:31:46.435Z,64.00
2017-03-28T05:32:44.074Z,64.40
2017-03-28T05:33:41.908Z,63.80
2017-03-28T05:34:39.670Z,63.50
2017-03-28T05:35:37.775Z,63.90
2017-03-28T05:36:35.562Z,63.90
2017-03-28T05:37:33.176Z,64.20
2017-03-28T05:38:31.984Z,63.80
2017-03-28T05:39:29.775Z,64.00
2017-03-28T05:40:27.443Z,64.40
2017-03-28T05:41:25.332Z,63.90
2017-03-28T05:42:23.186Z,64.00
2017-03-28T05:43:20.870Z,63.90
2017-03-28T05:44:18.696Z,64.20
2017-03-28T05:45:16.350Z,64.40
2017-03-28T05:46:14.014Z,64.60
2017-03-28T05:47:11.691Z,65.00
2017-03-28T05:48:09.493Z,64.60
2017-03-28T05:49:07.223Z,65.10
2017-03-28T05:50:05.659Z,64.70
2017-03-28T05:51:03.515Z,64.40
2017-03-28T05:52:01.834Z,64.70
2017-03-28T05:52:59.755Z,64.60
2017-03-28T05:53:57.388Z,64.40
2017-03-28T05:54:55.971Z,64.20
2017-03-28T05:55:53.673Z,64.30
2017-03-28T05:56:51.327Z,64.40
2017-03-28T05:57:49.963Z,63.70
2017-03-28T05:58:47.954Z,63.60
2017-03-28T05:59:45.571Z,63.70
2017-03-28T06:00:43.588Z,63.80
2017-03-28T06:01:42.218Z,63.20
2017-03-28T06:02:40.079Z,62.80
2017-03-28T06:03:37.821Z,62.50
2017-03-28T06:04:35.563Z,62.60
2017-03-28T06:05:33.323Z,62.70
2017-03-28T06:06:31.535Z,62.80
2017-03-28T06:07:29.884Z,62.90
2017-03-28T06:08:27.620Z,63.00
2017-03-28T06:09:26.201Z,63.30
2017-03-28T06:10:23.933Z,63.70
2017-03-28T06:11:21.795Z,63.70
2017-03-28T06:12:19.674Z,64.10
2017-03-28T06:13:17.360Z,64.40
2017-03-28T06:14:14.996Z,64.50
2017-03-28T06:15:13.346Z,64.50
2017-03-28T06:16:11.182Z,64.30
2017-03-28T06:17:08.961Z,64.40
2017-03-28T06:18:07.026Z,64.50
2017-03-28T06:19:04.853Z,64.60
2017-03-28T06:20:02.818Z,64.50
2017-03-28T06:21:00.454Z,64.80
2017-03-28T06:21:58.116Z,64.70
2017-03-28T06:22:56.460Z,64.60
2017-03-28T06:23:54.191Z,64.40
2017-03-28T06:24:51.812Z,64.60
2017-03-28T06:25:50.258Z,64.10
2017-03-28T06:26:48.043Z,63.70
2017-03-28T06:27:45.718Z,63.80
2017-03-28T06:28:43.657Z,64.00
2017-03-28T06:29:41.340Z,64.40
2017-03-28T06:30:39.283Z,64.20
2017-03-28T06:31:36.911Z,63.70
2017-03-28T06:32:34.572Z,63.20
2017-03-28T06:33:32.223Z,63.20
2017-03-28T06:34:29.855Z,62.90
2017-03-28T06:35:27.891Z,62.90
2017-03-28T06:36:25.659Z,62.40
2017-03-28T06:37:23.344Z,62.20
2017-03-28T06:38:20.971Z,62.40
2017-03-28T06:39:18.805Z,62.30
2017-03-28T06:40:17.138Z,61.80
2017-03-28T06:41:14.976Z,61.60
2017-03-28T06:42:12.614Z,61.40
2017-03-28T06:43:10.592Z,61.20
2017-03-28T06:44:08.439Z,61.00
2017-03-28T06:45:06.591Z,61.20
2017-03-28T06:46:04.254Z,60.70
2017-03-28T06:47:02.339Z,61.00
2017-03-28T06:48:00.224Z,61.10
2017-03-28T06:48:58.015Z,61.30
2017-03-28T06:49:55.927Z,61.00
2017-03-28T06:50:53.810Z,61.00
2017-03-28T06:51:52.099Z,61.20
2017-03-28T06:52:50.067Z,61.40
2017-03-28T06:53:47.807Z,60.70
2017-03-28T06:54:45.628Z,60.50
2017-03-28T06:55:43.751Z,60.30
2017-03-28T06:56:41.515Z,60.40
2017-03-28T06:57:39.207Z,61.00
2017-03-28T06:58:36.937Z,60.70
2017-03-28T06:59:34.755Z,60.20
2017-03-28T07:00:33.198Z,60.10
2017-03-28T07:01:30.921Z,60.00
2017-03-28T07:02:28.874Z,59.80
2017-03-28T07:03:26.560Z,59.70
2017-03-28T07:04:27.242Z,59.40
2017-03-28T07:05:24.982Z,59.80
2017-03-28T07:06:22.926Z,59.70
2017-03-28T07:07:20.687Z,59.40
2017-03-28T07:08:18.492Z,59.10
2017-03-28T07:09:16.107Z,59.10
2017-03-28T07:10:14.843Z,58.00
2017-03-28T07:11:12.454Z,58.30
2017-03-28T07:12:10.075Z,58.30
2017-03-28T07:13:07.669Z,58.00
2017-03-28T07:14:05.438Z,58.10
2017-03-28T07:15:03.275Z,58.00
2017-03-28T07:16:01.107Z,58.50
2017-03-28T07:16:58.898Z,58.70
2017-03-28T07:17:58.376Z,58.30
2017-03-28T07:18:56.112Z,57.50
2017-03-28T07:19:54.569Z,57.40
2017-03-28T07:20:52.514Z,57.40
2017-03-28T07:21:50.323Z,57.10
2017-03-28T07:22:48.172Z,57.00
2017-03-28T07:23:46.073Z,57.20
2017-03-28T07:24:43.766Z,57.60
2017-03-28T07:25:41.903Z,57.80
2017-03-28T07:26:39.702Z,57.20
2017-03-28T07:28:06.150Z,55.90
2017-03-28T07:29:03.826Z,56.10
2017-03-28T07:30:02.007Z,56.90
2017-03-28T07:30:59.887Z,57.50
2017-03-28T07:31:57.647Z,57.20
2017-03-28T07:32:55.291Z,57.00
2017-03-28T07:33:53.289Z,57.10
2017-03-28T07:34:50.993Z,56.70
2017-03-28T07:35:51.394Z,56.60
2017-03-28T07:36:49.652Z,56.30
2017-03-28T07:37:47.413Z,56.60
2017-03-28T07:38:46.071Z,55.90
2017-03-28T07:39:44.887Z,56.00
2017-03-28T07:40:42.994Z,55.70
2017-03-28T07:41:40.794Z,55.80
2017-03-28T07:42:38.814Z,55.80
2017-03-28T07:43:36.574Z,54.80
2017-03-28T07:44:34.628Z,54.40
2017-03-28T07:45:32.550Z,53.90
2017-03-28T07:47:40.101Z,53.30
2017-03-28T07:48:37.940Z,53.70
2017-03-28T07:49:36.700Z,53.70
2017-03-28T07:50:34.546Z,53.80
2017-03-28T07:51:33.016Z,53.20
2017-03-28T07:52:30.990Z,53.50
2017-03-28T07:53:29.562Z,53.80
2017-03-28T07:54:27.521Z,53.70
2017-03-28T07:55:25.461Z,53.20
2017-03-28T07:56:23.193Z,52.10
2017-03-28T07:57:21.355Z,51.80
2017-03-28T07:58:20.351Z,52.20
2017-03-28T07:59:18.236Z,52.00
2017-03-28T08:00:16.185Z,52.10
2017-03-28T08:01:14.111Z,51.60
2017-03-28T08:02:11.852Z,51.60
2017-03-28T08:03:10.116Z,51.60
2017-03-28T08:04:08.499Z,51.70
2017-03-28T08:05:06.312Z,51.70
2017-03-28T08:06:04.120Z,51.10
2017-03-28T08:07:01.906Z,51.10
2017-03-28T08:08:00.273Z,51.10
2017-03-28T08:08:59.053Z,51.60
2017-03-28T08:09:56.768Z,51.90
2017-03-28T08:10:55.033Z,51.90
2017-03-28T08:11:52.792Z,51.70
2017-03-28T08:13:03.296Z,51.60
2017-03-28T08:14:21.005Z,51.40
2017-03-28T08:16:43.785Z,50.80
2017-03-28T08:21:34.481Z,51.00
2017-03-28T08:22:35.108Z,52.30
2017-03-28T08:24:37.174Z,51.20
2017-03-28T08:28:38.697Z,51.40
2017-03-28T08:30:13.285Z,50.40
2017-03-28T08:31:28.889Z,50.80
2017-03-28T08:34:06.183Z,49.50
2017-03-28T08:35:04.412Z,49.00
2017-03-28T08:36:02.465Z,49.10
2017-03-28T08:37:00.360Z,49.10
2017-03-28T08:37:58.311Z,48.60
2017-03-28T08:38:56.203Z,48.80
2017-03-28T08:39:54.192Z,48.70
2017-03-28T08:40:52.300Z,48.50
2017-03-28T08:41:50.049Z,48.30
2017-03-28T08:42:48.762Z,48.80
2017-03-28T08:43:48.953Z,48.60
2017-03-28T08:44:47.635Z,47.80
2017-03-28T08:45:45.738Z,48.60
2017-03-28T08:46:43.989Z,48.60
2017-03-28T08:47:53.702Z,48.00
2017-03-28T08:49:17.313Z,47.90
2017-03-28T08:59:05.610Z,47.20
2017-03-28T09:05:25.069Z,46.90
2017-03-28T09:06:38.017Z,47.00
2017-03-28T09:09:27.347Z,46.80
2017-03-28T09:10:50.589Z,46.40
2017-03-28T09:13:18.512Z,45.90
2017-03-28T09:14:35.316Z,45.90
2017-03-28T09:19:08.147Z,44.90
2017-03-28T09:20:17.936Z,45.70
2017-03-28T09:25:48.547Z,46.20
2017-03-28T09:29:13.984Z,46.60
2017-03-28T09:46:11.489Z,43.10
2017-03-28T09:47:40.426Z,42.30
2017-03-28T09:49:04.147Z,43.10
2017-03-28T09:51:32.024Z,43.60
2017-03-28T09:53:47.223Z,44.30
2017-03-28T09:55:05.632Z,43.80
2017-03-28T09:58:17.987Z,44.30
2017-03-28T10:01:19.858Z,43.40
2017-03-28T10:06:07.977Z,42.70
2017-03-28T10:14:39.488Z,41.70
2017-03-28T10:16:21.711Z,42.20
2017-03-28T10:19:21.873Z,42.30
2017-03-28T10:20:41.081Z,41.80
2017-03-28T10:25:24.009Z,41.00
2017-03-28T10:29:52.580Z,40.20
2017-03-28T10:30:58.930Z,38.80
2017-03-28T10:32:09.310Z,37.60
2017-03-28T10:34:27.130Z,38.30
2017-03-28T10:45:17.551Z,31.80
2017-03-28T10:58:58.831Z,31.30
2017-03-28T11:12:28.093Z,21.90
2017-03-28T11:13:26.951Z,20.90
2017-03-28T11:14:24.737Z,21.00
2017-03-28T11:15:22.431Z,20.70
2017-03-28T11:16:20.100Z,20.10
2017-03-28T11:17:17.858Z,20.40
2017-03-28T11:18:15.847Z,20.10
2017-03-28T11:19:13.519Z,20.10
2017-03-28T11:20:11.287Z,19.20
2017-03-28T11:21:09.912Z,19.30
2017-03-28T11:22:07.618Z,18.60
2017-03-28T11:23:05.315Z,18.80
2017-03-28T11:24:03.382Z,19.20
2017-03-28T11:25:01.344Z,19.10
2017-03-28T11:25:59.083Z,18.90
2017-03-28T11:26:56.754Z,18.20
2017-03-28T11:27:54.416Z,18.50
2017-03-28T11:28:52.122Z,17.70
2017-03-28T11:29:49.771Z,17.50
2017-03-28T11:30:48.861Z,17.60
2017-03-28T11:31:46.501Z,17.40
2017-03-28T11:32:44.149Z,17.90
2017-03-28T11:33:41.807Z,17.80
2017-03-28T11:34:39.424Z,17.70
2017-03-28T11:35:37.938Z,17.80
2017-03-28T11:36:35.575Z,17.80
2017-03-28T11:37:33.295Z,17.20
2017-03-28T11:38:31.047Z,17.40
2017-03-28T11:39:28.699Z,17.10
2017-03-28T11:40:26.511Z,17.20
2017-03-28T11:41:24.132Z,16.80
2017-03-28T11:42:22.145Z,16.80
2017-03-28T11:43:19.823Z,16.90
2017-03-28T11:44:17.495Z,16.30
2017-03-28T11:45:15.493Z,16.10
2017-03-28T11:46:13.203Z,16.00
2017-03-28T11:47:10.955Z,16.10
2017-03-28T11:48:08.620Z,15.50
2017-03-28T11:49:06.323Z,15.70
2017-03-28T11:50:05.391Z,15.80
2017-03-28T11:51:03.043Z,14.90
2017-03-28T11:52:00.720Z,14.60
2017-03-28T11:52:58.362Z,15.00
2017-03-28T11:53:56.003Z,14.50
2017-03-28T11:54:53.684Z,14.70
2017-03-28T11:55:51.706Z,14.20
2017-03-28T11:56:49.403Z,14.30
2017-03-28T11:57:47.105Z,14.50
2017-03-28T11:58:44.806Z,14.00
2017-03-28T11:59:42.466Z,14.00
2017-03-28T12:00:41.239Z,13.80
2017-03-28T12:01:39.168Z,13.80
2017-03-28T12:02:37.494Z,13.90
2017-03-28T12:03:35.203Z,13.50
2017-03-28T12:04:32.871Z,13.20
2017-03-28T12:05:31.324Z,13.10
2017-03-28T12:06:29.027Z,13.40
2017-03-28T12:07:26.691Z,13.10
2017-03-28T12:08:24.323Z,13.20
2017-03-28T12:09:22.027Z,13.70
2017-03-28T12:10:20.083Z,13.70
2017-03-28T12:11:17.778Z,13.50
2017-03-28T12:12:15.472Z,13.10
2017-03-28T12:13:13.682Z,12.30
2017-03-28T12:14:11.363Z,12.40
2017-03-28T12:15:09.119Z,12.10
2017-03-28T12:16:07.155Z,12.40
2017-03-28T12:17:04.839Z,12.40
2017-03-28T12:18:03.135Z,11.70
2017-03-28T12:19:00.837Z,12.20
2017-03-28T12:19:58.514Z,11.60
2017-03-28T12:20:57.190Z,12.10
2017-03-28T12:21:54.861Z,12.00
2017-03-28T12:22:52.603Z,11.80
2017-03-28T12:23:50.685Z,12.00
2017-03-28T12:24:48.338Z,11.90
2017-03-28T12:25:46.327Z,11.40
2017-03-28T12:26:43.991Z,11.30
2017-03-28T12:27:42.268Z,11.20
2017-03-28T12:28:39.937Z,11.20
2017-03-28T12:29:37.634Z,11.20
2017-03-28T12:30:35.414Z,11.50
2017-03-28T12:31:33.007Z,11.30
2017-03-28T12:32:30.647Z,11.40
2017-03-28T12:33:29.238Z,10.80
2017-03-28T12:34:26.867Z,11.30
2017-03-28T12:35:24.866Z,11.20
2017-03-28T12:36:22.541Z,11.70
2017-03-28T12:37:20.247Z,12.20
2017-03-28T12:38:17.883Z,11.90
2017-03-28T12:39:15.550Z,11.50
2017-03-28T12:40:13.222Z,11.70
2017-03-28T12:41:12.459Z,11.50
2017-03-28T12:42:10.131Z,11.00
2017-03-28T12:43:07.835Z,10.90
2017-03-28T12:44:05.518Z,10.70
2017-03-28T12:45:03.199Z,11.50
2017-03-28T12:46:00.906Z,11.70
2017-03-28T12:47:01.675Z,11.90
2017-03-28T12:47:59.354Z,11.80
2017-03-28T12:48:56.984Z,12.10
2017-03-28T12:49:54.627Z,11.90
2017-03-28T12:50:52.319Z,11.90
2017-03-28T12:51:49.974Z,11.50
2017-03-28T12:52:48.201Z,12.10
2017-03-28T12:53:45.882Z,11.90
2017-03-28T12:54:43.576Z,12.00
2017-03-28T12:55:41.887Z,11.60
2017-03-28T12:56:39.548Z,12.20
2017-03-28T12:57:37.226Z,11.30
2017-03-28T12:58:34.898Z,11.40
2017-03-28T12:59:32.592Z,11.30
2017-03-28T13:00:30.590Z,11.10
2017-03-28T13:01:28.223Z,10.60
2017-03-28T13:02:25.858Z,10.40
2017-03-28T13:03:23.484Z,11.70
2017-03-28T13:04:21.146Z,12.80
2017-03-28T13:05:18.851Z,13.60
2017-03-28T13:06:16.972Z,13.70
2017-03-28T13:07:14.647Z,13.50
2017-03-28T13:08:12.319Z,13.50
2017-03-28T13:09:10.015Z,13.80
2017-03-28T13:10:09.175Z,13.50
2017-03-28T13:11:06.939Z,13.80
2017-03-28T13:12:04.578Z,13.90
2017-03-28T13:13:02.228Z,13.10
2017-03-28T13:13:59.923Z,13.20
2017-03-28T13:14:57.583Z,13.10
2017-03-28T13:15:55.587Z,11.90
2017-03-28T13:16:53.316Z,11.10
2017-03-28T13:17:51.891Z,11.60
2017-03-28T13:18:49.537Z,11.50
2017-03-28T13:19:47.197Z,10.80
2017-03-28T13:20:44.907Z,11.50
2017-03-28T13:21:43.090Z,10.30
2017-03-28T13:22:40.747Z,10.30
2017-03-28T13:23:38.402Z,10.20
2017-03-28T13:24:36.055Z,10.40
2017-03-28T13:25:34.331Z,10.70
2017-03-28T13:26:38.579Z,11.00
2017-03-28T13:27:36.567Z,11.00
2017-03-28T13:28:34.237Z,11.40
2017-03-28T13:29:32.006Z,11.60
2017-03-28T13:30:29.696Z,12.60
2017-03-28T13:31:27.356Z,13.10
2017-03-28T13:32:25.185Z,13.30
2017-03-28T13:33:22.918Z,13.30
2017-03-28T13:34:20.549Z,14.10
2017-03-28T13:35:18.256Z,14.70
2017-03-28T13:36:15.935Z,15.20
2017-03-28T13:37:13.602Z,15.90
2017-03-28T13:38:11.249Z,16.40
2017-03-28T13:39:09.090Z,17.30
2017-03-28T13:40:06.855Z,17.80
2017-03-28T13:41:04.486Z,19.00
2017-03-28T13:42:03.152Z,20.10
2017-03-28T13:43:00.799Z,20.70
2017-03-28T13:43:58.438Z,21.20
2017-03-28T13:44:56.431Z,21.60
2017-03-28T13:45:54.155Z,21.50
2017-03-28T13:46:51.810Z,22.20
2017-03-28T13:47:49.483Z,22.60
2017-03-28T13:48:47.790Z,23.10
2017-03-28T13:49:46.447Z,22.80
2017-03-28T13:50:44.513Z,22.10
2017-03-28T13:51:42.210Z,21.20
2017-03-28T13:52:39.866Z,20.20
2017-03-28T13:53:37.518Z,20.10
2017-03-28T13:54:35.151Z,19.20
2017-03-28T13:55:32.884Z,17.70
2017-03-28T13:56:30.574Z,16.50
2017-03-28T13:57:28.234Z,16.50
2017-03-28T13:58:25.877Z,16.10
2017-03-28T13:59:23.520Z,16.50
2017-03-28T14:00:21.874Z,17.40
2017-03-28T14:01:19.631Z,18.50
2017-03-28T14:02:17.744Z,18.70
2017-03-28T14:03:15.432Z,19.20
2017-03-28T14:04:13.783Z,18.90
2017-03-28T14:05:12.039Z,18.90
2017-03-28T14:06:10.359Z,20.20
2017-03-28T14:07:08.062Z,19.80
2017-03-28T14:08:06.323Z,20.50
2017-03-28T14:09:03.987Z,21.40
2017-03-28T14:10:01.951Z,22.10
2017-03-28T14:11:00.689Z,22.80
2017-03-28T14:11:58.363Z,23.50
2017-03-28T14:12:56.014Z,23.70
2017-03-28T14:13:53.718Z,24.30
2017-03-28T14:14:51.404Z,24.70
2017-03-28T14:15:49.570Z,25.40
2017-03-28T14:16:47.349Z,25.30
2017-03-28T14:17:45.491Z,25.00
2017-03-28T14:18:45.033Z,25.30
2017-03-28T14:19:42.622Z,26.20
2017-03-28T14:20:43.461Z,26.30
2017-03-28T14:21:41.085Z,25.60
2017-03-28T14:22:38.736Z,25.80
2017-03-28T14:23:36.434Z,26.40
2017-03-28T14:24:34.087Z,26.70
2017-03-28T14:25:31.846Z,26.70
2017-03-28T14:26:29.779Z,27.00
2017-03-28T14:27:27.442Z,26.60
2017-03-28T14:28:25.232Z,27.30
2017-03-28T14:29:22.869Z,27.00
2017-03-28T14:30:21.069Z,27.40
2017-03-28T14:31:18.710Z,27.20
2017-03-28T14:32:16.913Z,27.20
2017-03-28T14:34:18.341Z,27.20